Time;durP1;ratioP1;P1;durP2;ratioP2;P2;SDS_P1;SDS_P2;PMS_P1;PMS_P2;Temp;Humidity;BMP_temperature;BMP_pressure;BME280_temperature;BME280_humidity;BME280_pressure;Samples;Min_cycle;Max_cycle;Signal;HPM_P1;HPM_P2
2022/07/11 00:05:40;;;;;;;10.23;3.15;;;14.70;99.90;;;;;;12487625;28;20049;-41
2022/07/11 00:11:42;;;;;;;15.48;3.13;;;14.80;99.90;;;;;;12488316;28;20095;-35
2022/07/11 00:17:44;;;;;;;7.78;2.90;;;14.80;99.90;;;;;;12486397;28;20049;-35
2022/07/11 00:23:46;;;;;;;16.90;3.83;;;14.70;99.90;;;;;;12485923;28;20082;-36
2022/07/11 00:29:47;;;;;;;14.15;3.90;;;14.80;99.90;;;;;;12491089;28;20451;-39
2022/07/11 00:35:49;;;;;;;11.60;3.25;;;14.80;99.90;;;;;;12472497;28;20128;-39
2022/07/11 00:41:52;;;;;;;13.38;4.00;;;14.80;99.90;;;;;;12450607;28;20045;-39
2022/07/11 00:47:55;;;;;;;9.88;3.17;;;14.80;99.90;;;;;;12486928;28;20053;-35
2022/07/11 00:53:59;;;;;;;7.67;3.13;;;14.80;99.90;;;;;;12495741;28;20176;-35
2022/07/11 01:00:02;;;;;;;10.00;3.28;;;14.90;99.90;;;;;;12485389;28;20079;-39
2022/07/11 01:06:05;;;;;;;8.38;3.05;;;14.80;99.90;;;;;;12497415;28;20096;-35
2022/07/11 01:12:07;;;;;;;15.80;3.60;;;14.70;99.90;;;;;;12492946;28;20103;-35
2022/07/11 01:18:08;;;;;;;10.57;3.55;;;14.60;99.90;;;;;;12494575;28;20053;-35
2022/07/11 01:24:10;;;;;;;11.65;4.13;;;14.60;99.90;;;;;;12495885;28;20545;-35
2022/07/11 01:30:12;;;;;;;6.78;3.40;;;14.80;99.90;;;;;;12493615;28;20050;-35
2022/07/11 01:36:14;;;;;;;10.07;3.72;;;14.70;99.90;;;;;;12499534;28;20134;-39
2022/07/11 01:42:16;;;;;;;17.92;4.10;;;14.60;99.90;;;;;;12488665;28;20072;-37
2022/07/11 01:48:18;;;;;;;11.23;3.88;;;14.80;99.90;;;;;;12490233;28;20191;-35
2022/07/11 01:54:20;;;;;;;10.43;3.88;;;14.80;99.90;;;;;;12486945;28;20460;-35
2022/07/11 02:00:21;;;;;;;9.85;4.03;;;14.70;99.90;;;;;;12504098;28;20102;-35
2022/07/11 02:06:23;;;;;;;14.75;4.68;;;14.80;99.90;;;;;;12493113;28;20182;-39
2022/07/11 02:12:25;;;;;;;7.45;3.95;;;14.90;99.90;;;;;;12486245;28;20069;-39
2022/07/11 02:18:27;;;;;;;13.52;4.38;;;14.80;99.90;;;;;;12479675;28;20494;-36
2022/07/11 02:24:30;;;;;;;8.55;4.22;;;14.80;99.90;;;;;;12493793;28;20405;-35
2022/07/11 02:30:32;;;;;;;14.32;4.38;;;14.80;99.90;;;;;;12490558;28;20127;-39
2022/07/11 02:36:34;;;;;;;10.85;4.70;;;14.80;99.90;;;;;;12486120;28;20061;-35
2022/07/11 02:42:35;;;;;;;16.27;4.95;;;14.70;99.90;;;;;;12489515;28;20390;-35
2022/07/11 02:48:37;;;;;;;16.67;6.07;;;14.80;99.90;;;;;;12484007;28;20132;-35
2022/07/11 02:54:39;;;;;;;26.20;5.57;;;14.70;99.90;;;;;;12487139;28;20057;-39
2022/07/11 03:00:41;;;;;;;17.90;6.38;;;14.70;99.90;;;;;;12489870;28;20091;-35
2022/07/11 03:06:43;;;;;;;14.27;6.97;;;14.80;99.90;;;;;;12485484;28;20041;-39
2022/07/11 03:12:45;;;;;;;16.35;7.47;;;14.70;99.90;;;;;;12472494;28;20451;-39
2022/07/11 03:18:47;;;;;;;12.70;7.85;;;14.80;99.90;;;;;;12488016;28;20056;-39
2022/07/11 03:24:52;;;;;;;19.75;9.30;;;14.70;99.90;;;;;;12485708;28;20124;-39
2022/07/11 03:30:54;;;;;;;14.50;9.07;;;14.60;99.90;;;;;;12488930;28;20045;-35
2022/07/11 03:36:56;;;;;;;11.23;8.45;;;14.60;99.90;;;;;;12506179;23;20076;-80
2022/07/11 03:42:58;;;;;;;18.60;10.20;;;14.50;99.90;;;;;;12491355;28;20503;-80
2022/07/11 03:49:00;;;;;;;17.88;10.48;;;14.50;99.90;;;;;;12472264;28;20390;-81
2022/07/11 03:55:02;;;;;;;18.50;10.55;;;14.40;99.90;;;;;;12489709;28;20037;-81
2022/07/11 04:01:04;;;;;;;17.83;11.68;;;14.50;99.90;;;;;;12482383;28;20098;-80
2022/07/11 04:07:06;;;;;;;20.10;11.70;;;14.50;99.90;;;;;;12491628;28;20053;-81
2022/07/11 04:13:08;;;;;;;18.38;11.48;;;14.50;99.90;;;;;;12468847;28;20094;-80
2022/07/11 04:19:09;;;;;;;15.52;11.13;;;14.40;99.90;;;;;;12492826;28;20088;-80
2022/07/11 04:25:11;;;;;;;19.85;11.18;;;14.50;99.90;;;;;;12505403;28;20508;-80
2022/07/11 04:31:13;;;;;;;23.13;10.48;;;14.50;99.90;;;;;;12474523;28;20187;-80
2022/07/11 04:37:15;;;;;;;15.65;9.30;;;14.50;99.90;;;;;;12475373;28;20050;-80
2022/07/11 04:43:17;;;;;;;16.85;9.77;;;14.60;99.90;;;;;;12465116;28;20102;-80
2022/07/11 04:49:19;;;;;;;13.40;9.73;;;14.60;99.90;;;;;;12461952;28;20049;-80
2022/07/11 04:55:21;;;;;;;13.55;9.25;;;14.60;99.90;;;;;;12484133;28;20049;-80
2022/07/11 05:01:23;;;;;;;4.63;3.20;;;14.60;99.90;;;;;;12469403;28;20447;-80
2022/07/11 05:07:24;;;;;;;4.55;2.17;;;14.50;99.90;;;;;;12457709;28;20053;-80
2022/07/11 05:13:28;;;;;;;3.25;1.92;;;14.50;99.90;;;;;;12456918;28;20111;-80
2022/07/11 05:19:30;;;;;;;3.47;1.70;;;14.40;99.90;;;;;;12466898;28;20049;-80
2022/07/11 05:25:32;;;;;;;2.97;1.40;;;14.40;99.90;;;;;;12472453;28;20038;-81
2022/07/11 05:31:34;;;;;;;4.35;1.70;;;14.40;99.90;;;;;;12473961;28;20520;-80
2022/07/11 05:37:36;;;;;;;3.67;1.98;;;14.40;99.90;;;;;;12464462;28;20106;-80
2022/07/11 05:43:37;;;;;;;3.58;1.88;;;14.30;99.90;;;;;;12473972;28;20132;-80
2022/07/11 05:49:40;;;;;;;4.85;1.58;;;14.30;99.90;;;;;;12444133;28;20050;-81
2022/07/11 05:55:41;;;;;;;3.78;2.10;;;14.40;99.90;;;;;;12449877;28;20103;-80
2022/07/11 06:01:43;;;;;;;5.28;2.17;;;14.40;99.90;;;;;;12464710;28;20060;-81
2022/07/11 06:14:06;;;;;;;2.83;1.83;;;14.60;99.90;;;;;;12475966;28;20037;-81
2022/07/11 06:20:08;;;;;;;4.82;1.65;;;14.60;99.90;;;;;;12449851;28;20090;-80
2022/07/11 06:26:11;;;;;;;3.20;1.40;;;14.70;99.90;;;;;;12485937;28;20077;-80
2022/07/11 06:32:13;;;;;;;4.93;1.52;;;14.70;99.90;;;;;;12476007;28;20183;-80
2022/07/11 06:38:15;;;;;;;4.75;1.42;;;14.60;99.90;;;;;;12471093;28;20457;-83
2022/07/11 06:44:17;;;;;;;2.72;1.15;;;14.50;99.90;;;;;;12477376;28;20575;-80
2022/07/11 06:50:20;;;;;;;4.38;1.90;;;14.70;99.90;;;;;;12456267;28;20087;-80
2022/07/11 06:56:21;;;;;;;3.05;1.80;;;14.80;99.90;;;;;;12471847;28;20451;-80
2022/07/11 07:02:27;;;;;;;3.63;2.10;;;14.80;99.90;;;;;;12455343;28;20107;-80
2022/07/11 07:08:30;;;;;;;4.90;2.00;;;14.90;99.90;;;;;;12473107;28;20514;-81
2022/07/11 07:14:32;;;;;;;3.30;1.80;;;15.10;99.90;;;;;;12483111;28;20136;-80
2022/07/11 07:20:33;;;;;;;3.22;1.95;;;15.10;99.90;;;;;;12475662;28;20131;-81
2022/07/11 07:26:35;;;;;;;3.80;1.92;;;15.10;99.90;;;;;;12463000;28;20053;-80
2022/07/11 07:32:37;;;;;;;3.00;2.20;;;15.10;99.90;;;;;;12445204;28;20512;-80
2022/07/11 07:38:41;;;;;;;6.28;2.08;;;15.10;99.90;;;;;;12465752;28;20045;-81
2022/07/11 07:44:44;;;;;;;3.10;2.17;;;15.20;99.90;;;;;;12456833;28;20052;-80
2022/07/11 07:50:45;;;;;;;4.32;2.00;;;15.30;99.90;;;;;;12441246;28;20042;-80
2022/07/11 07:56:47;;;;;;;2.97;1.40;;;15.10;99.90;;;;;;12438369;28;20119;-80
2022/07/11 08:02:50;;;;;;;2.90;1.27;;;15.10;99.90;;;;;;12483665;28;20069;-80
2022/07/11 08:08:52;;;;;;;1.77;1.10;;;15.20;99.90;;;;;;12465539;28;20054;-80
2022/07/11 08:14:55;;;;;;;4.00;1.50;;;15.30;99.90;;;;;;12482217;28;20084;-80
2022/07/11 08:20:56;;;;;;;3.00;1.70;;;15.30;99.90;;;;;;12480190;28;20049;-80
2022/07/11 08:26:58;;;;;;;4.68;2.10;;;15.30;99.90;;;;;;12474128;28;20103;-80
2022/07/11 08:33:20;;;;;;;7.85;2.30;;;15.20;99.90;;;;;;12462439;28;20057;-81
2022/07/11 08:39:22;;;;;;;5.22;1.90;;;15.20;99.90;;;;;;12457541;28;20099;-81
2022/07/11 08:45:30;;;;;;;2.72;1.85;;;15.30;99.90;;;;;;12481070;28;20124;-80
2022/07/11 08:51:32;;;;;;;3.05;1.92;;;15.50;99.90;;;;;;12479881;28;20529;-81
2022/07/11 08:57:35;;;;;;;3.35;1.48;;;15.60;99.90;;;;;;12468978;28;20128;-80
2022/07/11 09:03:36;;;;;;;2.22;1.00;;;15.50;99.90;;;;;;12471565;28;20042;-81
2022/07/11 09:09:38;;;;;;;2.92;1.27;;;15.70;99.90;;;;;;12453246;28;20041;-81
2022/07/11 09:15:44;;;;;;;2.35;1.20;;;15.90;99.90;;;;;;12468186;28;20122;-80
2022/07/11 09:28:34;;;;;;;2.35;0.55;;;15.90;99.90;;;;;;12487032;28;20129;-81
2022/07/11 09:34:35;;;;;;;1.83;0.70;;;16.00;99.90;;;;;;12444886;28;20045;-80
2022/07/11 09:40:47;;;;;;;1.63;0.93;;;15.80;99.90;;;;;;12464826;28;20516;-81
2022/07/11 09:46:50;;;;;;;1.50;0.75;;;15.90;99.90;;;;;;12477376;28;20054;-81
2022/07/11 09:53:02;;;;;;;2.50;1.10;;;15.90;99.90;;;;;;12462442;28;20045;-80
2022/07/11 09:59:05;;;;;;;1.98;1.00;;;16.00;99.90;;;;;;12465704;28;20525;-81
2022/07/11 10:05:08;;;;;;;1.67;0.85;;;16.10;99.90;;;;;;12465978;28;20362;-80
2022/07/11 10:11:11;;;;;;;1.40;0.98;;;16.20;99.90;;;;;;12468438;28;20037;-81
2022/07/11 10:18:00;;;;;;;3.43;0.87;;;16.40;99.90;;;;;;12454867;28;20053;-80
2022/07/11 10:24:27;;;;;;;2.65;0.77;;;16.50;99.90;;;;;;12401400;28;20189;-80
2022/07/11 10:30:49;;;;;;;1.25;0.90;;;16.70;99.90;;;;;;12474663;28;20172;-80
2022/07/11 10:36:51;;;;;;;1.63;0.80;;;16.50;99.90;;;;;;12466371;28;20054;-80
2022/07/11 10:42:53;;;;;;;1.08;0.57;;;16.30;99.90;;;;;;12475533;28;20045;-81
2022/07/11 10:49:07;;;;;;;1.50;0.80;;;16.20;99.90;;;;;;12487746;28;20144;-81
2022/07/11 10:55:36;;;;;;;3.03;0.98;;;16.20;99.90;;;;;;12465832;28;20060;-81
2022/07/11 11:02:01;;;;;;;2.90;0.73;;;16.10;99.90;;;;;;12470338;28;20079;-81
2022/07/11 11:08:32;;;;;;;1.40;0.90;;;16.10;99.90;;;;;;12481558;28;20054;-81
2022/07/11 11:14:34;;;;;;;1.95;1.17;;;16.10;99.90;;;;;;12464000;28;20551;-80
2022/07/11 11:20:36;;;;;;;3.38;1.25;;;16.10;99.90;;;;;;12458574;28;20076;-81
2022/07/11 11:26:47;;;;;;;2.20;1.20;;;16.10;99.90;;;;;;12477201;28;20083;-81
2022/07/11 11:32:48;;;;;;;2.45;1.05;;;16.10;99.90;;;;;;12457711;28;20046;-80
2022/07/11 11:38:51;;;;;;;1.95;0.90;;;16.10;99.90;;;;;;12452357;28;20045;-81
2022/07/11 11:45:00;;;;;;;2.27;1.07;;;16.10;99.90;;;;;;12478648;28;20041;-81
2022/07/11 11:51:06;;;;;;;3.13;1.10;;;16.10;99.90;;;;;;12455896;28;20185;-81
2022/07/11 11:57:13;;;;;;;3.08;1.00;;;16.20;99.90;;;;;;12475969;28;20046;-81
2022/07/11 12:03:14;;;;;;;2.20;1.30;;;16.10;99.90;;;;;;12466547;28;20075;-81
2022/07/11 12:09:46;;;;;;;3.22;1.60;;;16.20;99.90;;;;;;12474312;28;20045;-81
2022/07/11 12:22:05;;;;;;;3.08;1.52;;;16.10;99.90;;;;;;12461227;28;20454;-80
2022/07/11 12:28:08;;;;;;;2.58;1.83;;;16.10;99.90;;;;;;12466081;28;20053;-81
2022/07/11 12:34:11;;;;;;;3.00;1.52;;;16.10;99.90;;;;;;12481763;28;20521;-81
2022/07/11 12:40:14;;;;;;;3.38;1.70;;;16.10;99.90;;;;;;12480898;28;20038;-80
2022/07/11 12:46:17;;;;;;;3.97;2.22;;;16.10;99.90;;;;;;12445791;28;20053;-81
2022/07/11 12:52:19;;;;;;;3.40;1.90;;;16.00;99.90;;;;;;12454013;28;20050;-81
2022/07/11 12:58:21;;;;;;;4.70;1.98;;;16.00;99.90;;;;;;12476541;28;20154;-81
2022/07/11 13:04:30;;;;;;;3.10;2.28;;;16.00;99.90;;;;;;12463483;28;20129;-81
2022/07/11 13:10:50;;;;;;;4.95;2.53;;;16.20;99.90;;;;;;12466796;28;20607;-81
2022/07/11 13:17:06;;;;;;;4.50;2.60;;;16.30;99.90;;;;;;12466563;28;20061;-81
2022/07/11 13:23:16;;;;;;;4.13;3.10;;;16.40;99.90;;;;;;12463404;28;20400;-81
2022/07/11 13:29:17;;;;;;;4.47;2.33;;;16.40;99.90;;;;;;12449149;28;20046;-81
2022/07/11 13:35:20;;;;;;;3.30;2.38;;;16.40;99.90;;;;;;12464794;28;20619;-81
2022/07/11 13:41:21;;;;;;;3.05;2.13;;;16.40;99.90;;;;;;12461086;28;20115;-82
2022/07/11 13:47:23;;;;;;;5.63;2.42;;;16.50;99.90;;;;;;12483030;28;20408;-81
2022/07/11 13:53:25;;;;;;;3.40;2.70;;;16.40;99.90;;;;;;12469600;28;20042;-81
2022/07/11 13:59:27;;;;;;;3.88;2.53;;;16.50;99.90;;;;;;12457891;28;20045;-82
2022/07/11 14:05:28;;;;;;;4.70;2.80;;;16.60;99.90;;;;;;12478342;28;20071;-81
2022/07/11 14:11:31;;;;;;;3.10;2.47;;;16.60;99.90;;;;;;12481062;28;20585;-81
2022/07/11 14:17:34;;;;;;;4.53;2.30;;;16.70;99.90;;;;;;12457686;28;20053;-81
2022/07/11 14:23:36;;;;;;;3.22;2.00;;;16.70;99.90;;;;;;12470519;28;20045;-81
2022/07/11 14:29:39;;;;;;;3.50;2.20;;;16.80;99.90;;;;;;12471150;28;20049;-81
2022/07/11 14:35:41;;;;;;;3.37;1.90;;;16.90;99.90;;;;;;12473383;28;20101;-81
2022/07/11 14:41:46;;;;;;;4.45;1.92;;;16.90;99.90;;;;;;12462661;28;20063;-82
2022/07/11 14:47:48;;;;;;;3.88;2.30;;;16.90;99.90;;;;;;12451837;28;20061;-81
2022/07/11 14:53:50;;;;;;;3.17;2.33;;;17.00;99.90;;;;;;12435295;28;20680;-82
2022/07/11 14:59:52;;;;;;;4.18;2.53;;;17.20;99.90;;;;;;12455007;28;20756;-82
2022/07/11 15:05:54;;;;;;;3.28;2.50;;;17.40;99.90;;;;;;12441661;28;20050;-81
2022/07/11 15:18:16;;;;;;;3.65;2.03;;;17.40;99.90;;;;;;12457158;28;20041;-82
2022/07/11 15:24:18;;;;;;;2.80;1.50;;;17.30;99.90;;;;;;12462290;28;20095;-82
2022/07/11 15:30:20;;;;;;;2.55;1.00;;;17.20;99.90;;;;;;12455278;28;20053;-82
2022/07/11 15:36:21;;;;;;;1.92;1.20;;;17.20;99.90;;;;;;12445507;28;20061;-80
2022/07/11 15:42:23;;;;;;;2.35;1.27;;;17.30;99.90;;;;;;12461169;28;20136;-81
2022/07/11 15:48:26;;;;;;;2.33;1.70;;;17.30;99.90;;;;;;12453202;28;20055;-81
2022/07/11 15:54:28;;;;;;;4.10;1.83;;;17.30;99.90;;;;;;12481870;28;20053;-81
2022/07/11 16:00:30;;;;;;;3.80;2.00;;;17.30;99.90;;;;;;12467895;28;20053;-81
2022/07/11 16:06:34;;;;;;;2.53;1.50;;;17.30;99.90;;;;;;12470665;28;20130;-82
2022/07/11 16:12:36;;;;;;;3.30;1.73;;;17.30;99.90;;;;;;12450684;28;20049;-81
2022/07/11 16:18:37;;;;;;;2.55;1.38;;;17.50;99.90;;;;;;12454186;28;20136;-82
2022/07/11 16:24:40;;;;;;;3.05;1.20;;;17.50;99.90;;;;;;12468654;28;20069;-81
2022/07/11 16:30:41;;;;;;;2.17;1.30;;;17.50;99.90;;;;;;12473767;28;20080;-81
2022/07/11 16:36:43;;;;;;;1.90;1.40;;;17.50;99.90;;;;;;12469848;28;20135;-81
2022/07/11 16:49:06;;;;;;;2.22;1.40;;;17.50;99.90;;;;;;12475339;28;20140;-81
2022/07/11 16:55:09;;;;;;;2.38;1.15;;;17.60;99.90;;;;;;12470053;28;20179;-81
2022/07/11 17:01:11;;;;;;;1.50;0.98;;;17.70;99.90;;;;;;12470966;28;20461;-81
2022/07/11 17:07:13;;;;;;;1.60;1.02;;;17.70;99.90;;;;;;12478808;28;20052;-82
2022/07/11 17:13:15;;;;;;;2.25;0.90;;;17.80;99.90;;;;;;12466234;28;20053;-81
2022/07/11 17:19:17;;;;;;;1.92;1.23;;;17.70;99.90;;;;;;12451695;28;20049;-81
2022/07/11 17:25:19;;;;;;;1.60;1.02;;;17.60;99.90;;;;;;12501884;28;20068;-81
2022/07/11 17:31:21;;;;;;;2.58;1.13;;;17.70;99.90;;;;;;12437024;28;20524;-82
2022/07/11 17:37:23;;;;;;;1.88;1.20;;;17.80;99.90;;;;;;12456505;28;20049;-81
2022/07/11 17:43:24;;;;;;;1.35;0.95;;;17.80;99.90;;;;;;12456000;28;20127;-81
2022/07/11 17:49:29;;;;;;;2.58;1.48;;;17.80;99.90;;;;;;12462562;28;20137;-82
2022/07/11 17:55:32;;;;;;;2.63;1.42;;;17.80;99.90;;;;;;12450521;28;20125;-81
2022/07/11 18:01:34;;;;;;;2.28;1.20;;;17.80;99.90;;;;;;12462454;28;20401;-81
2022/07/11 18:07:36;;;;;;;1.73;1.23;;;17.70;99.90;;;;;;12489820;28;20101;-81
2022/07/11 18:13:39;;;;;;;1.80;1.30;;;17.70;99.90;;;;;;12459552;28;20103;-81
2022/07/11 18:19:41;;;;;;;1.87;1.10;;;17.70;99.90;;;;;;12459746;28;20124;-81
2022/07/11 18:25:43;;;;;;;2.20;1.30;;;17.60;99.90;;;;;;12491847;28;20048;-82
2022/07/11 18:31:44;;;;;;;1.92;1.13;;;17.70;99.90;;;;;;12490640;28;20111;-81
2022/07/11 18:37:46;;;;;;;1.42;1.00;;;17.60;99.90;;;;;;12486287;28;20552;-82
2022/07/11 18:43:58;;;;;;;2.30;0.90;;;17.60;99.90;;;;;;12457783;28;20046;-82
2022/07/11 18:50:00;;;;;;;3.13;1.35;;;17.60;99.90;;;;;;12472260;28;20129;-82
2022/07/11 18:56:02;;;;;;;2.80;1.30;;;17.50;99.90;;;;;;12451485;28;20058;-81
2022/07/11 19:02:04;;;;;;;3.00;1.25;;;17.60;99.90;;;;;;12463399;28;20068;-81
2022/07/11 19:08:07;;;;;;;3.03;1.30;;;17.50;99.90;;;;;;12458169;28;20131;-82
2022/07/11 19:14:12;;;;;;;1.90;1.30;;;17.50;99.90;;;;;;12466047;28;20041;-82
2022/07/11 19:20:14;;;;;;;1.70;1.20;;;17.50;99.90;;;;;;12474004;28;20049;-81
2022/07/11 19:26:19;;;;;;;1.92;1.30;;;17.40;99.90;;;;;;12469661;28;20056;-82
2022/07/11 19:32:21;;;;;;;2.50;1.50;;;17.40;99.90;;;;;;12457054;28;20456;-81
2022/07/11 19:38:22;;;;;;;3.10;1.42;;;17.30;99.90;;;;;;12461814;28;20486;-81
2022/07/11 19:44:24;;;;;;;1.85;1.20;;;17.40;99.90;;;;;;12469699;28;20045;-82
2022/07/11 19:50:26;;;;;;;3.00;1.52;;;17.30;99.90;;;;;;12457413;28;20533;-82
2022/07/11 20:02:51;;;;;;;2.10;1.35;;;17.20;99.90;;;;;;12515781;28;20041;-81
2022/07/11 20:08:53;;;;;;;1.25;1.00;;;17.20;99.90;;;;;;12476038;28;20041;-81
2022/07/11 20:14:55;;;;;;;3.47;1.48;;;17.20;99.90;;;;;;12478188;28;20042;-81
2022/07/11 20:20:58;;;;;;;3.92;1.13;;;17.10;99.90;;;;;;12498900;28;20049;-82
2022/07/11 20:26:59;;;;;;;2.15;1.20;;;16.90;99.90;;;;;;12458995;28;20053;-81
2022/07/11 20:33:01;;;;;;;2.13;0.90;;;17.00;99.90;;;;;;12484902;28;20060;-81
2022/07/11 20:39:03;;;;;;;1.75;1.00;;;17.00;99.90;;;;;;12477124;28;20441;-81
2022/07/11 20:45:05;;;;;;;1.35;0.95;;;17.00;99.90;;;;;;12472917;28;20046;-82
2022/07/11 20:51:07;;;;;;;1.63;1.00;;;17.00;99.90;;;;;;12458348;28;20557;-81
2022/07/11 20:57:10;;;;;;;2.17;1.17;;;17.10;99.90;;;;;;12446203;28;20058;-82
2022/07/11 21:03:12;;;;;;;2.42;1.20;;;17.00;99.90;;;;;;12466064;28;20049;-81
2022/07/11 21:09:13;;;;;;;1.98;1.02;;;17.00;99.90;;;;;;12480880;28;20135;-82
2022/07/11 21:15:15;;;;;;;2.50;1.45;;;17.00;99.90;;;;;;12455272;28;20049;-81
2022/07/11 21:21:17;;;;;;;1.95;1.05;;;16.90;99.90;;;;;;12469267;28;20049;-82
2022/07/11 21:27:19;;;;;;;1.75;1.00;;;16.90;99.90;;;;;;12466467;28;20525;-81
2022/07/11 21:33:21;;;;;;;1.83;1.17;;;17.00;99.90;;;;;;12433637;28;20103;-82
2022/07/11 21:39:23;;;;;;;2.53;1.40;;;17.00;99.90;;;;;;12449937;28;20199;-81
2022/07/11 21:45:25;;;;;;;2.70;1.08;;;16.90;99.90;;;;;;12474839;28;20087;-82
2022/07/11 21:51:27;;;;;;;2.72;0.90;;;17.00;99.90;;;;;;12478299;28;20172;-81
2022/07/11 21:57:29;;;;;;;15.38;1.40;;;17.00;99.90;;;;;;12477023;28;20127;-81
2022/07/11 22:03:31;;;;;;;2.47;1.10;;;17.00;99.90;;;;;;12481783;28;20103;-82
2022/07/11 22:09:33;;;;;;;1.80;1.20;;;16.90;99.90;;;;;;12496278;28;20123;-82
2022/07/11 22:15:34;;;;;;;6.25;1.23;;;16.70;99.90;;;;;;12474965;28;20076;-81
2022/07/11 22:21:36;;;;;;;5.10;1.10;;;16.80;99.90;;;;;;12504915;28;20045;-81
2022/07/11 22:27:38;;;;;;;4.90;0.95;;;16.80;99.90;;;;;;12470192;28;20049;-81
2022/07/11 22:33:40;;;;;;;3.67;1.40;;;16.60;99.90;;;;;;12463130;28;20140;-82
2022/07/11 22:39:42;;;;;;;5.80;1.10;;;16.50;99.90;;;;;;12462445;28;20175;-81
2022/07/11 22:45:44;;;;;;;3.65;1.40;;;16.40;99.90;;;;;;12458388;28;20064;-81
2022/07/11 22:52:06;;;;;;;4.45;1.15;;;16.20;99.90;;;;;;12444295;28;20622;-81
2022/07/11 22:58:28;;;;;;;3.00;1.00;;;16.10;99.90;;;;;;12474165;28;20044;-82
2022/07/11 23:04:30;;;;;;;3.17;1.10;;;16.10;99.90;;;;;;12471989;28;20075;-81
2022/07/11 23:10:32;;;;;;;1.75;0.98;;;16.10;99.90;;;;;;12452001;28;20173;-82
2022/07/11 23:16:34;;;;;;;5.38;1.10;;;16.10;99.90;;;;;;12442592;28;20511;-81
2022/07/11 23:22:36;;;;;;;3.13;1.10;;;16.00;99.90;;;;;;12451231;28;20519;-82
2022/07/11 23:28:38;;;;;;;2.03;1.20;;;15.90;99.90;;;;;;12448239;28;20399;-82
2022/07/11 23:34:40;;;;;;;4.88;1.30;;;16.00;99.90;;;;;;12459675;28;20054;-82
2022/07/11 23:40:42;;;;;;;5.47;1.40;;;16.10;99.90;;;;;;12442133;28;20132;-82
2022/07/11 23:46:44;;;;;;;5.10;1.20;;;16.20;99.90;;;;;;12444156;28;20132;-81
2022/07/11 23:52:46;;;;;;;3.55;1.30;;;16.10;99.90;;;;;;12464095;28;20038;-82
2022/07/11 23:58:47;;;;;;;2.83;1.17;;;16.00;99.90;;;;;;12470912;28;20058;-81
